createdAt,value
2018-07-04T00:04:12.110Z,8.13
2018-07-04T00:08:27.188Z,9.73
2018-07-04T00:12:42.224Z,11.73
2018-07-04T00:16:57.148Z,9.93
2018-07-04T00:21:12.289Z,10.03
2018-07-04T00:25:27.378Z,10.23
2018-07-04T00:29:42.484Z,8.60
2018-07-04T00:33:57.496Z,9.30
2018-07-04T00:38:12.637Z,13.20
2018-07-04T00:42:27.787Z,10.23
2018-07-04T00:46:42.994Z,9.57
2018-07-04T00:50:57.938Z,10.80
2018-07-04T00:55:13.110Z,9.77
2018-07-04T00:59:28.100Z,10.70
2018-07-04T01:03:43.176Z,11.90
2018-07-04T01:07:58.065Z,10.73
2018-07-04T01:12:13.029Z,11.30
2018-07-04T01:16:28.088Z,10.90
2018-07-04T01:20:48.128Z,10.93
2018-07-04T01:25:03.097Z,11.13
2018-07-04T01:29:18.170Z,11.37
2018-07-04T01:33:33.248Z,11.17
2018-07-04T01:37:48.488Z,12.47
2018-07-04T01:42:03.852Z,11.40
2018-07-04T01:46:18.981Z,11.80
2018-07-04T01:50:34.152Z,10.53
2018-07-04T01:54:49.251Z,11.70
2018-07-04T01:59:04.192Z,12.27
2018-07-04T02:03:19.413Z,12.77
2018-07-04T02:07:34.602Z,11.40
2018-07-04T02:11:49.709Z,11.80
2018-07-04T02:16:04.665Z,12.50
2018-07-04T02:20:19.905Z,11.87
2018-07-04T02:24:35.020Z,11.33
2018-07-04T02:28:50.207Z,11.23
2018-07-04T02:33:05.360Z,11.57
2018-07-04T02:37:20.425Z,12.53
2018-07-04T02:41:35.596Z,12.47
2018-07-04T02:45:50.790Z,11.20
2018-07-04T02:50:05.760Z,10.97
2018-07-04T02:54:20.999Z,12.03
2018-07-04T02:58:36.145Z,13.47
2018-07-04T03:02:51.281Z,12.47
2018-07-04T03:07:06.398Z,11.30
2018-07-04T03:11:21.361Z,11.90
2018-07-04T03:15:36.553Z,10.93
2018-07-04T03:19:51.520Z,12.00
2018-07-04T03:24:06.472Z,12.13
2018-07-04T03:28:21.480Z,12.90
2018-07-04T03:32:36.663Z,11.00
2018-07-04T03:36:51.624Z,10.63
2018-07-04T03:41:06.601Z,10.73
2018-07-04T03:45:21.828Z,11.77
2018-07-04T03:49:36.870Z,10.90
2018-07-04T03:53:51.853Z,12.37
2018-07-04T03:58:07.075Z,12.10
2018-07-04T04:02:22.297Z,12.20
2018-07-04T04:06:37.261Z,14.40
2018-07-04T04:10:52.464Z,12.07
2018-07-04T04:15:07.577Z,11.30
2018-07-04T04:19:39.043Z,11.47
2018-07-04T04:23:53.987Z,13.00
2018-07-04T04:28:09.041Z,12.10
2018-07-04T04:32:24.560Z,12.10
2018-07-04T04:36:39.636Z,14.00
2018-07-04T04:40:54.674Z,11.57
2018-07-04T04:45:09.870Z,10.37
2018-07-04T04:49:24.944Z,9.83
2018-07-04T04:53:40.146Z,15.10
2018-07-04T04:57:55.189Z,11.23
2018-07-04T05:02:10.193Z,10.87
2018-07-04T05:06:25.145Z,9.80
2018-07-04T05:10:40.217Z,10.00
2018-07-04T05:14:55.909Z,10.47
2018-07-04T05:19:11.154Z,9.93
2018-07-04T05:23:26.258Z,10.17
2018-07-04T05:27:41.473Z,8.30
2018-07-04T05:31:56.704Z,9.67
2018-07-04T05:36:11.684Z,8.70
2018-07-04T05:40:26.670Z,10.33
2018-07-04T05:44:41.697Z,8.20
2018-07-04T05:48:56.744Z,10.10
2018-07-04T05:53:11.636Z,10.53
2018-07-04T05:57:26.589Z,9.43
2018-07-04T06:01:41.735Z,9.80
2018-07-04T06:05:56.745Z,8.90
2018-07-04T06:10:11.781Z,8.53
2018-07-04T06:14:26.668Z,6.80
2018-07-04T06:18:41.804Z,7.70
2018-07-04T06:22:56.962Z,8.00
2018-07-04T06:27:11.860Z,7.63
2018-07-04T06:31:26.831Z,7.90
2018-07-04T06:35:44.038Z,8.10
2018-07-04T06:39:46.972Z,8.90
2018-07-04T06:43:49.689Z,8.80
2018-07-04T06:47:52.381Z,7.97
2018-07-04T06:51:55.058Z,7.33
2018-07-04T06:55:57.744Z,8.17
2018-07-04T07:00:00.445Z,7.20
2018-07-04T07:04:15.789Z,7.10
2018-07-04T07:08:30.825Z,11.93
2018-07-04T07:12:46.199Z,7.97
2018-07-04T07:17:01.137Z,7.83
2018-07-04T07:21:16.334Z,11.90
2018-07-04T07:25:31.290Z,8.73
2018-07-04T07:29:46.302Z,8.53
2018-07-04T07:34:01.507Z,9.17
2018-07-04T07:38:16.637Z,8.00
2018-07-04T07:42:31.720Z,8.70
2018-07-04T07:46:46.829Z,6.93
2018-07-04T07:51:01.869Z,8.70
2018-07-04T07:55:16.752Z,8.50
2018-07-04T07:59:31.809Z,7.57
2018-07-04T08:03:46.777Z,7.40
2018-07-04T08:08:02.053Z,6.90
2018-07-04T08:12:17.357Z,8.70
2018-07-04T08:16:32.422Z,6.83
2018-07-04T08:20:47.416Z,9.63
2018-07-04T08:25:02.477Z,7.70
2018-07-04T08:29:17.464Z,6.90
2018-07-04T08:33:32.440Z,7.60
2018-07-04T08:37:47.581Z,6.40
2018-07-04T08:42:02.438Z,6.43
2018-07-04T08:46:17.625Z,6.43
2018-07-04T08:50:32.651Z,6.97
2018-07-04T08:54:47.697Z,6.87
2018-07-04T08:59:02.600Z,6.03
2018-07-04T09:03:17.507Z,8.03
2018-07-04T09:07:32.508Z,4.90
2018-07-04T09:11:47.530Z,5.50
2018-07-04T09:16:02.500Z,5.40
2018-07-04T09:20:17.642Z,4.60
2018-07-04T09:24:32.795Z,4.87
2018-07-04T09:28:47.917Z,5.13
2018-07-04T09:33:02.801Z,5.30
2018-07-04T09:37:17.824Z,4.67
2018-07-04T09:41:32.867Z,4.53
2018-07-04T09:45:47.931Z,5.47
2018-07-04T09:50:02.901Z,6.03
2018-07-04T09:54:17.893Z,5.20
2018-07-04T09:58:32.928Z,9.00
2018-07-04T10:02:48.037Z,3.93
2018-07-04T10:07:03.061Z,4.77
2018-07-04T10:11:18.014Z,4.80
2018-07-04T10:15:33.314Z,5.27
2018-07-04T10:19:48.370Z,5.37
2018-07-04T10:24:03.427Z,5.93
2018-07-04T10:28:18.415Z,4.33
2018-07-04T10:32:33.517Z,4.70
2018-07-04T10:36:48.597Z,5.00
2018-07-04T10:41:03.752Z,5.97
2018-07-04T10:45:18.892Z,4.20
2018-07-04T10:49:33.976Z,5.80
2018-07-04T10:53:49.461Z,4.20
2018-07-04T10:58:04.736Z,4.30
2018-07-04T11:02:19.791Z,3.80
2018-07-04T11:06:34.922Z,4.07
2018-07-04T11:10:49.875Z,3.60
2018-07-04T11:15:04.932Z,5.43
2018-07-04T11:19:20.050Z,4.83
2018-07-04T11:23:34.894Z,4.40
2018-07-04T11:27:49.889Z,4.33
2018-07-04T11:32:04.867Z,5.60
2018-07-04T11:36:19.825Z,4.07
2018-07-04T11:40:34.907Z,6.10
2018-07-04T11:44:49.865Z,6.63
2018-07-04T11:48:52.554Z,4.63
2018-07-04T11:52:55.354Z,4.40
2018-07-04T11:56:58.146Z,4.97
2018-07-04T12:01:00.772Z,4.20
2018-07-04T12:05:15.725Z,4.10
2018-07-04T12:09:18.421Z,3.87
2018-07-04T12:13:22.213Z,4.87
2018-07-04T12:17:24.977Z,6.13
2018-07-04T12:21:27.701Z,3.80
2018-07-04T12:25:30.565Z,4.13
2018-07-04T12:29:33.248Z,4.03
2018-07-04T12:33:35.944Z,4.07
2018-07-04T12:37:39.680Z,3.97
2018-07-04T12:41:42.373Z,4.87
2018-07-04T12:45:45.071Z,4.20
2018-07-04T12:49:47.943Z,4.83
2018-07-04T12:53:50.869Z,3.30
2018-07-04T12:58:06.058Z,7.23
2018-07-04T13:02:21.070Z,3.83
2018-07-04T13:06:36.358Z,3.27
2018-07-04T13:10:51.320Z,4.60
2018-07-04T13:15:06.477Z,3.40
2018-07-04T13:19:21.819Z,4.10
2018-07-04T13:23:36.783Z,3.40
2018-07-04T13:27:51.637Z,4.70
2018-07-04T13:32:06.766Z,3.70
2018-07-04T13:36:21.795Z,3.67
2018-07-04T13:40:36.747Z,3.30
2018-07-04T13:44:51.867Z,4.00
2018-07-04T13:49:06.943Z,5.90
2018-07-04T13:53:22.056Z,3.80
2018-07-04T13:57:37.092Z,3.60
2018-07-04T14:01:52.181Z,3.57
2018-07-04T14:06:07.249Z,5.93
2018-07-04T14:10:22.282Z,5.13
2018-07-04T14:14:37.411Z,2.90
2018-07-04T14:18:52.399Z,3.67
2018-07-04T14:23:07.424Z,4.00
2018-07-04T14:27:22.566Z,3.77
2018-07-04T14:31:37.547Z,3.97
2018-07-04T14:35:52.757Z,3.07
2018-07-04T14:40:07.705Z,3.13
2018-07-04T14:44:22.732Z,3.33
2018-07-04T14:48:37.772Z,3.73
2018-07-04T14:52:52.752Z,4.10
2018-07-04T14:57:07.825Z,3.83
2018-07-04T15:01:22.834Z,3.80
2018-07-04T15:05:37.881Z,3.10
2018-07-04T15:09:52.980Z,3.17
2018-07-04T15:14:08.262Z,3.10
2018-07-04T15:18:23.346Z,3.40
2018-07-04T15:22:39.513Z,3.10
2018-07-04T15:26:54.809Z,3.27
2018-07-04T15:31:09.918Z,3.53
2018-07-04T15:35:24.991Z,3.50
2018-07-04T15:39:40.107Z,3.37
2018-07-04T15:43:55.152Z,3.63
2018-07-04T15:48:10.226Z,3.50
2018-07-04T15:52:25.287Z,3.60
2018-07-04T15:56:40.201Z,3.33
2018-07-04T16:00:55.282Z,3.33
2018-07-04T16:05:10.438Z,3.57
2018-07-04T16:09:25.516Z,3.40
2018-07-04T16:13:40.750Z,3.83
2018-07-04T16:17:55.704Z,3.80
2018-07-04T16:22:10.795Z,3.97
2018-07-04T16:26:25.844Z,3.90
2018-07-04T16:30:40.953Z,4.80
2018-07-04T16:34:55.934Z,5.50
2018-07-04T16:39:10.779Z,4.40
2018-07-04T16:43:25.839Z,5.47
2018-07-04T16:47:40.858Z,5.90
2018-07-04T16:51:55.941Z,6.27
2018-07-04T16:56:10.934Z,5.00
2018-07-04T17:00:26.067Z,5.20
2018-07-04T17:04:41.105Z,4.73
2018-07-04T17:08:56.366Z,4.80
2018-07-04T17:13:11.484Z,4.70
2018-07-04T17:17:26.523Z,5.50
2018-07-04T17:21:41.767Z,6.20
2018-07-04T17:25:56.885Z,5.07
2018-07-04T17:30:12.921Z,6.17
2018-07-04T17:34:28.323Z,5.00
2018-07-04T17:38:43.473Z,6.37
2018-07-04T17:42:58.557Z,6.30
2018-07-04T17:47:13.651Z,6.30
2018-07-04T17:51:29.608Z,6.50
2018-07-04T17:55:45.937Z,5.77
2018-07-04T18:00:01.038Z,5.70
2018-07-04T18:04:16.098Z,6.00
2018-07-04T18:08:31.162Z,6.03
2018-07-04T18:12:46.453Z,6.37
2018-07-04T18:17:01.539Z,7.40
2018-07-04T18:21:21.749Z,6.03
2018-07-04T18:25:36.894Z,6.73
2018-07-04T18:29:52.021Z,6.67
2018-07-04T18:34:07.137Z,7.57
2018-07-04T18:38:22.287Z,6.50
2018-07-04T18:42:38.137Z,6.40
2018-07-04T18:46:53.258Z,6.20
2018-07-04T18:51:08.295Z,6.77
2018-07-04T18:55:23.387Z,6.47
2018-07-04T18:59:38.681Z,6.13
2018-07-04T19:03:53.776Z,6.70
2018-07-04T19:08:09.027Z,7.50
2018-07-04T19:12:24.929Z,8.97
2018-07-04T19:16:40.101Z,7.30
2018-07-04T19:20:55.121Z,7.10
2018-07-04T19:25:10.215Z,6.70
2018-07-04T19:29:25.565Z,8.37
2018-07-04T19:33:40.756Z,8.23
2018-07-04T19:37:55.662Z,7.67
2018-07-04T19:42:10.779Z,7.77
2018-07-04T19:46:25.960Z,8.03
2018-07-04T19:50:41.511Z,8.20
2018-07-04T19:54:56.773Z,8.03
2018-07-04T19:59:12.070Z,7.87
2018-07-04T20:03:27.165Z,8.60
2018-07-04T20:07:42.326Z,8.13
2018-07-04T20:11:57.444Z,8.20
2018-07-04T20:16:12.665Z,7.97
2018-07-04T20:20:27.989Z,8.03
2018-07-04T20:24:42.978Z,8.57
2018-07-04T20:28:58.198Z,8.73
2018-07-04T20:33:13.051Z,8.67
2018-07-04T20:37:28.055Z,11.10
2018-07-04T20:41:43.922Z,8.50
2018-07-04T20:45:59.034Z,8.37
2018-07-04T20:50:14.044Z,9.17
2018-07-04T20:54:29.523Z,9.53
2018-07-04T20:58:44.731Z,9.50
2018-07-04T21:02:59.741Z,10.27
2018-07-04T21:07:14.764Z,11.40
2018-07-04T21:11:29.919Z,11.00
2018-07-04T21:15:44.960Z,10.10
2018-07-04T21:20:00.043Z,8.43
2018-07-04T21:24:15.542Z,10.23
2018-07-04T21:28:30.592Z,9.43
2018-07-04T21:32:45.781Z,8.20
2018-07-04T21:37:00.676Z,9.30
2018-07-04T21:41:15.684Z,10.27
2018-07-04T21:45:31.257Z,8.67
2018-07-04T21:49:46.269Z,8.53
2018-07-04T21:54:01.393Z,9.07
2018-07-04T21:58:16.452Z,14.03
2018-07-04T22:02:31.637Z,9.33
2018-07-04T22:06:46.668Z,9.60
2018-07-04T22:11:01.805Z,10.37
2018-07-04T22:15:16.721Z,10.60
2018-07-04T22:19:31.619Z,9.50
2018-07-04T22:23:46.687Z,10.50
2018-07-04T22:28:01.766Z,8.90
2018-07-04T22:32:16.975Z,9.30
2018-07-04T22:36:32.077Z,10.20
2018-07-04T22:40:46.862Z,10.70
2018-07-04T22:45:01.984Z,9.07
2018-07-04T22:49:16.952Z,9.90
2018-07-04T22:53:32.182Z,9.80
2018-07-04T22:57:47.116Z,10.27
2018-07-04T23:02:02.197Z,9.50
2018-07-04T23:06:17.338Z,10.53
2018-07-04T23:10:32.576Z,10.60
2018-07-04T23:14:47.613Z,11.27
2018-07-04T23:19:02.643Z,9.93
2018-07-04T23:23:17.694Z,9.97
2018-07-04T23:27:32.672Z,10.20
2018-07-04T23:31:47.687Z,11.87
2018-07-04T23:36:02.641Z,11.20
2018-07-04T23:40:17.935Z,11.20
2018-07-04T23:44:32.996Z,10.10
2018-07-04T23:48:48.100Z,11.10
2018-07-04T23:53:03.070Z,11.03
2018-07-04T23:57:18.034Z,10.60
